createdAt,value
2023-05-19T00:00:50.981Z,12.82
2023-05-19T00:01:55.024Z,12.87
2023-05-19T00:02:58.398Z,12.88
2023-05-19T00:04:02.862Z,12.88
2023-05-19T00:05:07.001Z,12.89
2023-05-19T00:06:09.844Z,12.91
2023-05-19T00:07:18.516Z,12.87
2023-05-19T00:08:22.724Z,12.89
2023-05-19T00:09:26.077Z,12.93
2023-05-19T00:10:31.658Z,12.93
2023-05-19T00:11:36.267Z,12.76
2023-05-19T00:12:38.713Z,12.61
2023-05-19T00:13:41.934Z,12.62
2023-05-19T00:14:44.385Z,12.57
2023-05-19T00:15:47.978Z,12.53
2023-05-19T00:16:50.515Z,12.37
2023-05-19T00:17:55.259Z,12.33
2023-05-19T00:18:59.879Z,12.42
2023-05-19T00:20:07.313Z,12.52
2023-05-19T00:21:09.360Z,12.39
2023-05-19T00:22:12.477Z,12.46
2023-05-19T00:23:15.774Z,12.57
2023-05-19T00:24:18.983Z,12.65
2023-05-19T00:25:21.065Z,12.74
2023-05-19T00:26:24.203Z,12.67
2023-05-19T00:27:43.816Z,12.73
2023-05-19T00:28:46.748Z,12.54
2023-05-19T00:29:49.720Z,12.62
2023-05-19T00:30:51.819Z,12.65
2023-05-19T00:31:54.790Z,12.58
2023-05-19T00:32:56.869Z,12.57
2023-05-19T00:33:59.830Z,12.66
2023-05-19T00:35:01.835Z,12.48
2023-05-19T00:36:05.890Z,12.57
2023-05-19T00:37:07.969Z,12.63
2023-05-19T00:38:10.820Z,12.66
2023-05-19T00:39:14.612Z,12.70
2023-05-19T00:40:17.917Z,12.74
2023-05-19T00:41:19.996Z,12.78
2023-05-19T00:42:23.418Z,12.80
2023-05-19T00:43:25.999Z,12.80
2023-05-19T00:44:28.927Z,12.78
2023-05-19T00:45:30.924Z,12.77
2023-05-19T00:46:34.043Z,12.80
2023-05-19T00:47:36.253Z,12.84
2023-05-19T00:48:39.234Z,12.86
2023-05-19T00:49:41.211Z,12.88
2023-05-19T00:50:44.683Z,12.77
2023-05-19T00:51:46.714Z,12.77
2023-05-19T00:52:50.503Z,12.70
2023-05-19T00:53:52.517Z,12.73
2023-05-19T00:54:57.052Z,12.77
2023-05-19T00:56:00.499Z,12.82
2023-05-19T00:57:04.611Z,12.78
2023-05-19T00:58:07.142Z,12.83
2023-05-19T00:59:10.264Z,12.81
2023-05-19T01:00:14.090Z,12.79
2023-05-19T01:01:17.420Z,12.76
2023-05-19T01:02:19.670Z,12.73
2023-05-19T01:03:23.426Z,12.76
2023-05-19T01:04:26.577Z,12.80
2023-05-19T01:05:29.588Z,12.78
2023-05-19T01:06:31.528Z,12.82
2023-05-19T01:07:34.507Z,12.85
2023-05-19T01:08:37.853Z,12.73
2023-05-19T01:09:41.605Z,12.67
2023-05-19T01:10:45.170Z,12.71
2023-05-19T01:11:48.205Z,12.73
2023-05-19T01:12:50.255Z,12.74
2023-05-19T01:13:53.605Z,12.76
2023-05-19T01:14:56.240Z,12.79
2023-05-19T01:16:03.330Z,12.77
2023-05-19T01:17:15.112Z,12.84
2023-05-19T01:18:23.764Z,12.87
2023-05-19T01:19:41.349Z,12.78
2023-05-19T01:20:48.132Z,12.67
2023-05-19T01:22:14.899Z,12.73
2023-05-19T01:23:29.194Z,12.77
2023-05-19T01:24:51.362Z,12.79
2023-05-19T01:26:37.004Z,12.51
2023-05-19T01:27:49.842Z,12.44
2023-05-19T01:29:28.597Z,12.50
2023-05-19T01:30:37.088Z,12.46
2023-05-19T01:31:42.119Z,12.27
2023-05-19T01:32:45.585Z,12.36
2023-05-19T01:33:50.341Z,12.30
2023-05-19T01:34:54.687Z,12.41
2023-05-19T01:35:58.477Z,12.33
2023-05-19T01:37:01.637Z,12.22
2023-05-19T01:38:06.464Z,12.18
2023-05-19T01:39:08.758Z,12.07
2023-05-19T01:40:12.243Z,12.05
2023-05-19T01:41:15.822Z,12.17
2023-05-19T01:42:20.402Z,12.25
2023-05-19T01:43:25.349Z,12.33
2023-05-19T01:44:29.660Z,12.41
2023-05-19T01:45:34.181Z,12.50
2023-05-19T01:46:38.556Z,12.55
2023-05-19T01:47:42.845Z,12.61
2023-05-19T01:48:46.561Z,12.62
2023-05-19T01:49:48.810Z,12.47
2023-05-19T01:50:52.359Z,12.51
2023-05-19T01:51:54.451Z,12.53
2023-05-19T01:52:58.837Z,12.59
2023-05-19T01:54:01.189Z,12.62
2023-05-19T01:55:04.146Z,12.63
2023-05-19T01:56:07.215Z,12.65
2023-05-19T01:57:18.423Z,12.68
2023-05-19T01:58:28.938Z,12.71
2023-05-19T01:59:48.766Z,12.68
2023-05-19T02:01:02.290Z,12.71
2023-05-19T02:02:15.647Z,12.67
2023-05-19T02:03:30.124Z,12.51
2023-05-19T02:04:40.898Z,12.56
2023-05-19T02:05:59.331Z,12.60
2023-05-19T02:07:05.852Z,12.60
2023-05-19T02:08:17.037Z,12.58
2023-05-19T02:09:26.168Z,12.61
2023-05-19T02:10:31.131Z,12.56
2023-05-19T02:11:38.796Z,12.47
2023-05-19T02:12:41.478Z,12.08
2023-05-19T02:13:48.212Z,12.18
2023-05-19T02:14:55.049Z,12.20
2023-05-19T02:16:04.686Z,12.25
2023-05-19T02:17:07.066Z,12.29
2023-05-19T02:18:11.529Z,12.37
2023-05-19T02:19:21.853Z,12.37
2023-05-19T02:20:24.932Z,12.29
2023-05-19T02:21:26.865Z,12.14
2023-05-19T02:22:31.755Z,12.23
2023-05-19T02:23:33.649Z,12.31
2023-05-19T02:24:36.703Z,12.38
2023-05-19T02:25:38.647Z,12.37
2023-05-19T02:26:42.175Z,12.41
2023-05-19T02:27:44.102Z,12.44
2023-05-19T02:28:46.950Z,12.31
2023-05-19T02:29:48.953Z,12.42
2023-05-19T02:30:52.136Z,12.42
2023-05-19T02:31:57.327Z,12.48
2023-05-19T02:33:00.556Z,12.47
2023-05-19T02:34:02.504Z,12.36
2023-05-19T02:35:07.201Z,12.27
2023-05-19T02:36:10.172Z,12.29
2023-05-19T02:37:13.687Z,12.21
2023-05-19T02:38:15.720Z,12.28
2023-05-19T02:39:19.249Z,12.34
2023-05-19T02:40:23.049Z,12.34
2023-05-19T02:41:26.216Z,12.41
2023-05-19T02:42:28.135Z,12.44
2023-05-19T02:43:31.452Z,12.46
2023-05-19T02:44:33.489Z,12.48
2023-05-19T02:45:36.395Z,12.49
2023-05-19T02:46:38.780Z,12.41
2023-05-19T02:47:43.163Z,12.48
2023-05-19T02:48:45.200Z,12.49
2023-05-19T02:49:48.091Z,12.50
2023-05-19T02:50:50.743Z,12.44
2023-05-19T02:51:53.915Z,12.43
2023-05-19T02:52:55.896Z,12.45
2023-05-19T02:53:58.948Z,12.44
2023-05-19T02:55:00.956Z,12.42
2023-05-19T02:56:04.118Z,12.45
2023-05-19T02:57:06.851Z,12.41
2023-05-19T02:58:09.741Z,12.46
2023-05-19T02:59:11.641Z,12.46
2023-05-19T03:00:15.610Z,12.42
2023-05-19T03:01:21.332Z,12.43
2023-05-19T03:02:24.311Z,12.46
2023-05-19T03:03:28.708Z,12.50
2023-05-19T03:04:31.684Z,12.53
2023-05-19T03:05:33.671Z,12.55
2023-05-19T03:06:36.642Z,12.57
2023-05-19T03:07:38.513Z,12.51
2023-05-19T03:08:42.428Z,12.51
2023-05-19T03:09:45.497Z,12.51
2023-05-19T03:10:48.130Z,12.48
2023-05-19T03:11:51.272Z,12.50
2023-05-19T03:12:53.212Z,12.50
2023-05-19T03:13:56.150Z,12.42
2023-05-19T03:14:58.019Z,12.46
2023-05-19T03:16:02.091Z,12.36
2023-05-19T03:17:04.892Z,12.30
2023-05-19T03:18:07.965Z,12.22
2023-05-19T03:19:11.513Z,12.28
2023-05-19T03:20:15.774Z,12.32
2023-05-19T03:21:17.703Z,12.35
2023-05-19T03:22:20.974Z,12.35
2023-05-19T03:23:22.897Z,12.42
2023-05-19T03:24:25.798Z,12.45
2023-05-19T03:25:27.691Z,12.39
2023-05-19T03:26:30.625Z,12.36
2023-05-19T03:27:32.557Z,12.33
2023-05-19T03:28:35.506Z,12.32
2023-05-19T03:29:37.386Z,12.32
2023-05-19T03:30:40.333Z,12.27
2023-05-19T03:31:47.289Z,12.29
2023-05-19T03:32:52.647Z,12.25
2023-05-19T03:33:54.754Z,12.28
2023-05-19T03:34:59.747Z,12.30
2023-05-19T03:36:01.884Z,12.27
2023-05-19T03:37:10.586Z,12.18
2023-05-19T03:38:13.348Z,12.22
2023-05-19T03:39:22.825Z,12.24
2023-05-19T03:40:25.234Z,12.29
2023-05-19T03:41:36.595Z,12.33
2023-05-19T03:42:39.131Z,12.36
2023-05-19T03:43:42.185Z,12.42
2023-05-19T03:44:45.598Z,12.46
2023-05-19T03:45:50.071Z,12.45
2023-05-19T03:47:11.474Z,12.46
2023-05-19T03:48:31.923Z,12.48
2023-05-19T03:49:53.363Z,12.47
2023-05-19T03:51:15.140Z,12.47
2023-05-19T03:52:18.300Z,12.27
2023-05-19T03:53:30.706Z,12.16
2023-05-19T03:54:33.602Z,12.00
2023-05-19T03:55:37.230Z,11.94
2023-05-19T03:56:41.137Z,11.90
2023-05-19T03:57:44.284Z,12.00
2023-05-19T03:58:48.232Z,12.08
2023-05-19T03:59:50.236Z,12.15
2023-05-19T04:00:53.226Z,12.20
2023-05-19T04:01:55.172Z,12.26
2023-05-19T04:02:58.162Z,12.28
2023-05-19T04:04:00.279Z,12.30
2023-05-19T04:05:05.027Z,12.35
2023-05-19T04:06:07.375Z,12.38
2023-05-19T04:07:11.732Z,12.29
2023-05-19T04:08:13.591Z,12.30
2023-05-19T04:09:17.387Z,12.35
2023-05-19T04:10:19.811Z,12.36
2023-05-19T04:11:23.327Z,12.40
2023-05-19T04:12:26.863Z,12.43
2023-05-19T04:13:29.768Z,12.45
2023-05-19T04:14:31.673Z,12.44
2023-05-19T04:15:35.060Z,12.44
2023-05-19T04:16:37.213Z,12.44
2023-05-19T04:17:40.750Z,12.46
2023-05-19T04:18:46.237Z,12.48
2023-05-19T04:19:49.325Z,12.46
2023-05-19T04:20:51.279Z,12.47
2023-05-19T04:21:55.666Z,12.48
2023-05-19T04:22:58.979Z,12.53
2023-05-19T04:24:01.856Z,12.50
2023-05-19T04:25:04.977Z,12.53
2023-05-19T04:26:07.979Z,12.55
2023-05-19T04:27:12.189Z,12.54
2023-05-19T04:28:16.389Z,12.54
2023-05-19T04:29:18.686Z,12.56
2023-05-19T04:30:22.684Z,12.57
2023-05-19T04:31:27.458Z,12.56
2023-05-19T04:32:31.081Z,12.54
2023-05-19T04:33:33.994Z,12.53
2023-05-19T04:34:40.249Z,12.52
2023-05-19T04:35:43.808Z,12.42
2023-05-19T04:36:48.574Z,12.42
2023-05-19T04:37:54.289Z,12.47
2023-05-19T04:39:07.332Z,12.26
2023-05-19T04:40:11.148Z,12.26
2023-05-19T04:41:16.474Z,12.26
2023-05-19T04:42:19.503Z,12.30
2023-05-19T04:43:22.976Z,12.33
2023-05-19T04:44:26.321Z,12.39
2023-05-19T04:45:30.124Z,12.46
2023-05-19T04:46:35.139Z,12.50
2023-05-19T04:47:38.348Z,12.52
2023-05-19T04:48:41.195Z,12.48
2023-05-19T04:49:46.023Z,12.47
2023-05-19T04:50:48.840Z,12.52
2023-05-19T04:51:55.522Z,12.59
2023-05-19T04:53:01.274Z,12.63
2023-05-19T04:54:05.701Z,12.75
2023-05-19T04:55:11.214Z,12.73
2023-05-19T04:56:15.381Z,12.53
2023-05-19T04:57:17.693Z,12.48
2023-05-19T04:58:21.826Z,12.47
2023-05-19T04:59:25.116Z,12.46
2023-05-19T05:00:28.350Z,12.45
2023-05-19T05:01:35.388Z,12.47
2023-05-19T05:02:37.448Z,12.46
2023-05-19T05:03:40.553Z,12.44
2023-05-19T05:04:44.152Z,12.29
2023-05-19T05:05:47.041Z,12.11
2023-05-19T05:06:49.563Z,12.10
2023-05-19T05:07:54.904Z,11.92
2023-05-19T05:08:58.567Z,12.06
2023-05-19T05:10:03.830Z,12.12
2023-05-19T05:11:07.006Z,12.17
2023-05-19T05:12:12.394Z,12.23
2023-05-19T05:13:15.979Z,12.26
2023-05-19T05:14:19.366Z,12.33
2023-05-19T05:15:24.258Z,12.26
2023-05-19T05:16:28.185Z,12.25
2023-05-19T05:17:32.549Z,12.26
2023-05-19T05:18:36.617Z,12.31
2023-05-19T05:19:39.378Z,12.26
2023-05-19T05:20:43.888Z,12.25
2023-05-19T05:21:47.788Z,12.16
2023-05-19T05:22:52.456Z,12.22
2023-05-19T05:23:56.122Z,12.16
2023-05-19T05:25:04.369Z,12.22
2023-05-19T05:26:11.055Z,12.27
2023-05-19T05:27:14.524Z,12.29
2023-05-19T05:28:16.720Z,12.34
2023-05-19T05:29:20.838Z,12.37
2023-05-19T05:30:22.860Z,12.42
2023-05-19T05:31:25.919Z,12.29
2023-05-19T05:32:28.759Z,12.30
2023-05-19T05:33:31.918Z,12.33
2023-05-19T05:34:34.294Z,12.37
2023-05-19T05:35:37.282Z,12.42
2023-05-19T05:36:41.275Z,12.45
2023-05-19T05:37:45.936Z,12.25
2023-05-19T05:38:48.107Z,12.14
2023-05-19T05:39:51.206Z,12.14
2023-05-19T05:40:55.789Z,12.13
2023-05-19T05:41:57.714Z,12.15
2023-05-19T05:43:00.743Z,12.23
2023-05-19T05:44:06.365Z,12.27
2023-05-19T05:45:09.796Z,12.34
2023-05-19T05:46:12.015Z,12.41
2023-05-19T05:47:15.840Z,12.46
2023-05-19T05:48:18.721Z,12.52
2023-05-19T05:49:22.350Z,12.56
2023-05-19T05:50:25.813Z,12.61
2023-05-19T05:51:32.917Z,12.66
2023-05-19T05:52:37.211Z,12.68
2023-05-19T05:53:44.058Z,12.72
2023-05-19T05:54:48.006Z,12.73
2023-05-19T05:55:55.936Z,12.76
2023-05-19T05:57:03.881Z,12.72
2023-05-19T05:58:11.338Z,12.85
2023-05-19T05:59:14.314Z,12.78
2023-05-19T06:00:18.020Z,12.79
2023-05-19T06:01:28.118Z,12.82
2023-05-19T06:02:30.281Z,12.82
2023-05-19T06:03:34.749Z,12.86
2023-05-19T06:04:41.215Z,12.88
2023-05-19T06:05:44.205Z,12.84
2023-05-19T06:06:46.223Z,12.86
2023-05-19T06:07:53.900Z,12.91
2023-05-19T06:08:59.912Z,12.88
2023-05-19T06:10:04.150Z,12.92
2023-05-19T06:11:08.285Z,12.92
2023-05-19T06:12:12.238Z,12.88
2023-05-19T06:13:23.957Z,12.86
2023-05-19T06:14:27.007Z,12.92
2023-05-19T06:15:49.172Z,12.83
2023-05-19T06:16:56.789Z,12.87
2023-05-19T06:17:58.743Z,12.92
2023-05-19T06:19:01.773Z,12.95
2023-05-19T06:20:05.454Z,12.94
2023-05-19T06:21:10.274Z,12.92
2023-05-19T06:22:13.015Z,12.95
2023-05-19T06:23:15.954Z,13.00
2023-05-19T06:24:18.093Z,12.94
2023-05-19T06:25:21.277Z,12.93
2023-05-19T06:26:24.581Z,12.98
2023-05-19T06:27:27.492Z,13.02
2023-05-19T06:28:30.516Z,13.12
2023-05-19T06:29:32.776Z,13.12
2023-05-19T06:30:39.330Z,13.00
2023-05-19T06:31:56.509Z,13.08
2023-05-19T06:32:58.824Z,13.14
2023-05-19T06:34:02.914Z,13.27
2023-05-19T06:35:05.707Z,13.29
2023-05-19T06:36:10.144Z,13.37
2023-05-19T06:37:17.002Z,13.40
2023-05-19T06:38:19.938Z,13.32
2023-05-19T06:39:21.894Z,13.43
2023-05-19T06:40:25.072Z,13.43
2023-05-19T06:41:29.959Z,13.49
2023-05-19T06:42:32.927Z,13.55
2023-05-19T06:43:49.441Z,13.49
2023-05-19T06:44:52.673Z,13.49
2023-05-19T06:45:55.587Z,13.45
2023-05-19T06:46:59.854Z,13.38
2023-05-19T06:48:02.876Z,13.36
2023-05-19T06:49:05.007Z,13.43
2023-05-19T06:50:12.939Z,13.40
2023-05-19T06:51:21.640Z,13.42
2023-05-19T06:52:28.978Z,13.48
2023-05-19T06:53:34.084Z,13.58
2023-05-19T06:54:39.573Z,13.73
2023-05-19T06:55:57.462Z,13.80
2023-05-19T06:57:05.062Z,13.91
2023-05-19T06:58:08.017Z,13.94
2023-05-19T06:59:10.302Z,13.98
2023-05-19T07:00:17.927Z,13.92
2023-05-19T07:01:24.319Z,13.88
2023-05-19T07:02:29.883Z,13.84
2023-05-19T07:03:33.646Z,13.59
2023-05-19T07:04:35.757Z,13.45
2023-05-19T07:05:38.701Z,13.48
2023-05-19T07:06:40.658Z,13.48
2023-05-19T07:07:45.066Z,13.53
2023-05-19T07:08:49.574Z,13.48
2023-05-19T07:09:53.603Z,13.48
2023-05-19T07:10:56.321Z,13.47
2023-05-19T07:11:59.361Z,13.46
2023-05-19T07:13:04.478Z,13.43
2023-05-19T07:14:08.266Z,13.41
2023-05-19T07:15:12.378Z,13.45
2023-05-19T07:16:14.753Z,13.55
2023-05-19T07:17:17.806Z,13.61
2023-05-19T07:18:21.187Z,13.60
2023-05-19T07:19:24.315Z,13.66
2023-05-19T07:20:29.813Z,13.58
2023-05-19T07:21:33.681Z,13.51
2023-05-19T07:22:35.926Z,13.59
2023-05-19T07:23:38.995Z,13.60
2023-05-19T07:24:40.927Z,13.67
2023-05-19T07:25:43.875Z,13.66
2023-05-19T07:26:45.759Z,13.73
2023-05-19T07:27:48.726Z,13.68
2023-05-19T07:28:52.309Z,13.73
2023-05-19T07:29:55.535Z,13.73
2023-05-19T07:30:57.471Z,13.73
2023-05-19T07:32:00.537Z,13.67
2023-05-19T07:33:03.624Z,13.72
2023-05-19T07:34:06.011Z,13.75
2023-05-19T07:35:09.446Z,13.75
2023-05-19T07:36:11.385Z,13.73
2023-05-19T07:37:14.305Z,13.75
2023-05-19T07:38:16.222Z,13.71
2023-05-19T07:39:19.559Z,13.73
2023-05-19T07:40:21.730Z,13.75
2023-05-19T07:41:24.644Z,13.75
2023-05-19T07:42:26.724Z,13.75
2023-05-19T07:43:29.728Z,13.78
2023-05-19T07:44:34.995Z,13.74
2023-05-19T07:45:37.184Z,13.62
2023-05-19T07:46:40.106Z,13.64
2023-05-19T07:47:42.118Z,13.66
2023-05-19T07:48:45.370Z,13.52
2023-05-19T07:49:50.387Z,13.58
2023-05-19T07:50:53.809Z,13.58
2023-05-19T07:51:56.783Z,13.62
2023-05-19T07:52:59.763Z,13.59
2023-05-19T07:54:02.281Z,13.55
2023-05-19T07:55:05.682Z,13.44
2023-05-19T07:56:07.626Z,13.47
2023-05-19T07:57:10.632Z,13.41
2023-05-19T07:58:12.841Z,13.46
2023-05-19T07:59:16.034Z,13.54
2023-05-19T08:00:19.970Z,13.52
2023-05-19T08:01:22.884Z,13.56
2023-05-19T08:02:24.977Z,13.53
2023-05-19T08:03:28.459Z,13.58
2023-05-19T08:04:31.626Z,13.56
2023-05-19T08:05:34.930Z,13.59
2023-05-19T08:06:37.881Z,13.61
2023-05-19T08:07:40.005Z,13.65
2023-05-19T08:08:43.247Z,13.71
2023-05-19T08:09:45.153Z,13.70
2023-05-19T08:10:48.076Z,13.73
2023-05-19T08:11:51.082Z,13.60
2023-05-19T08:12:53.975Z,13.64
2023-05-19T08:13:55.969Z,13.54
2023-05-19T08:15:01.172Z,13.56
2023-05-19T08:16:05.350Z,13.58
2023-05-19T08:17:08.372Z,13.64
2023-05-19T08:18:10.556Z,13.70
2023-05-19T08:19:13.591Z,13.72
2023-05-19T08:20:16.046Z,13.73
2023-05-19T08:21:18.994Z,13.74
2023-05-19T08:22:22.033Z,13.74
2023-05-19T08:23:23.964Z,13.74
2023-05-19T08:24:29.461Z,13.70
2023-05-19T08:25:31.458Z,13.59
2023-05-19T08:26:36.922Z,13.45
2023-05-19T08:27:39.601Z,13.47
2023-05-19T08:28:42.541Z,13.49
2023-05-19T08:29:44.780Z,13.44
2023-05-19T08:30:47.755Z,13.43
2023-05-19T08:31:53.091Z,13.45
2023-05-19T08:32:55.600Z,13.47
2023-05-19T08:33:58.794Z,13.49
2023-05-19T08:35:00.782Z,13.49
2023-05-19T08:36:03.801Z,13.56
2023-05-19T08:37:05.755Z,13.61
2023-05-19T08:38:08.703Z,13.59
2023-05-19T08:39:11.033Z,13.53
2023-05-19T08:40:18.384Z,13.56
2023-05-19T08:41:21.541Z,13.63
2023-05-19T08:42:24.669Z,13.69
2023-05-19T08:43:27.624Z,13.71
2023-05-19T08:44:30.940Z,13.64
2023-05-19T08:45:34.961Z,13.72
2023-05-19T08:46:37.238Z,13.71
2023-05-19T08:47:42.487Z,13.73
2023-05-19T08:48:45.176Z,13.76
2023-05-19T08:49:53.860Z,13.76
2023-05-19T08:51:09.075Z,13.82
2023-05-19T08:52:21.044Z,13.80
2023-05-19T08:54:55.850Z,13.85
2023-05-19T08:56:02.302Z,13.84
2023-05-19T08:57:05.946Z,13.82
2023-05-19T08:58:08.631Z,13.84
2023-05-19T08:59:12.546Z,13.76
2023-05-19T09:00:17.897Z,13.72
2023-05-19T09:01:21.339Z,13.68
2023-05-19T09:02:24.367Z,13.64
2023-05-19T09:03:29.385Z,13.58
2023-05-19T09:04:33.426Z,13.69
2023-05-19T09:05:35.918Z,13.71
2023-05-19T09:06:40.938Z,13.69
2023-05-19T09:07:44.936Z,13.68
2023-05-19T09:08:48.220Z,13.54
2023-05-19T09:09:50.127Z,13.57
2023-05-19T09:10:53.134Z,13.61
2023-05-19T09:11:56.163Z,13.58
2023-05-19T09:12:58.633Z,13.57
2023-05-19T09:14:01.560Z,13.64
2023-05-19T09:15:04.709Z,13.62
2023-05-19T09:16:08.817Z,13.70
2023-05-19T09:17:12.011Z,13.74
2023-05-19T09:18:15.185Z,13.75
2023-05-19T09:19:20.837Z,13.79
2023-05-19T09:20:23.069Z,13.73
2023-05-19T09:21:31.099Z,13.70
2023-05-19T09:22:35.660Z,13.72
2023-05-19T09:23:38.540Z,13.76
2023-05-19T09:24:41.404Z,13.78
2023-05-19T09:25:51.557Z,13.77
2023-05-19T09:26:56.999Z,13.86
2023-05-19T09:28:00.898Z,13.85
2023-05-19T09:29:03.246Z,13.81
2023-05-19T09:30:10.344Z,13.84
2023-05-19T09:31:13.865Z,13.85
2023-05-19T09:32:25.021Z,13.88
2023-05-19T09:33:28.264Z,13.84
2023-05-19T09:34:32.596Z,13.90
2023-05-19T09:35:35.216Z,13.94
2023-05-19T09:36:40.947Z,13.96
2023-05-19T09:37:44.522Z,13.87
2023-05-19T09:38:47.489Z,13.94
2023-05-19T09:39:52.782Z,13.95
2023-05-19T09:40:58.133Z,13.93
2023-05-19T09:42:07.292Z,13.73
2023-05-19T09:43:09.875Z,13.81
2023-05-19T09:44:23.575Z,13.69
2023-05-19T09:45:28.395Z,13.74
2023-05-19T09:46:30.450Z,13.76
2023-05-19T09:47:38.178Z,13.73
2023-05-19T09:48:41.247Z,13.80
2023-05-19T09:49:47.798Z,13.84
2023-05-19T09:50:51.713Z,13.85
2023-05-19T09:51:54.598Z,13.87
2023-05-19T09:52:58.457Z,13.88
2023-05-19T09:54:00.696Z,13.89
2023-05-19T09:55:05.633Z,13.81
2023-05-19T09:56:09.735Z,13.89
2023-05-19T09:57:12.674Z,13.86
2023-05-19T09:58:17.402Z,13.88
2023-05-19T09:59:24.976Z,13.83
2023-05-19T10:00:28.179Z,13.76
2023-05-19T10:01:33.662Z,13.83
2023-05-19T10:02:36.552Z,13.87
2023-05-19T10:03:40.301Z,13.87
2023-05-19T10:04:42.759Z,13.91
2023-05-19T10:05:48.686Z,13.89
2023-05-19T10:06:53.591Z,13.91
2023-05-19T10:07:56.725Z,13.91
2023-05-19T10:09:01.408Z,13.95
2023-05-19T10:10:03.806Z,13.90
2023-05-19T10:11:07.669Z,13.85
2023-05-19T10:12:12.206Z,13.89
2023-05-19T10:13:15.748Z,13.84
2023-05-19T10:14:19.295Z,13.83
2023-05-19T10:15:23.368Z,13.79
2023-05-19T10:16:28.900Z,13.87
2023-05-19T10:17:32.554Z,13.92
2023-05-19T10:18:37.711Z,13.97
2023-05-19T10:19:44.411Z,13.94
2023-05-19T10:20:50.131Z,13.97
2023-05-19T10:21:53.221Z,13.96
2023-05-19T10:22:56.529Z,13.96
2023-05-19T10:23:58.569Z,14.00
2023-05-19T10:25:01.567Z,14.03
2023-05-19T10:26:06.882Z,14.05
2023-05-19T10:27:14.522Z,14.03
2023-05-19T10:28:20.522Z,13.99
2023-05-19T10:29:28.465Z,14.01
2023-05-19T10:30:36.169Z,14.00
2023-05-19T10:31:41.691Z,14.02
2023-05-19T10:32:48.542Z,14.04
2023-05-19T10:34:06.571Z,14.07
2023-05-19T10:35:32.521Z,14.05
2023-05-19T10:36:47.464Z,14.06
2023-05-19T10:37:58.984Z,14.05
2023-05-19T10:39:06.319Z,14.03
2023-05-19T10:40:13.624Z,14.02
2023-05-19T10:41:26.055Z,14.03
2023-05-19T10:42:36.756Z,14.03
2023-05-19T10:43:50.383Z,13.99
2023-05-19T10:45:02.323Z,13.92
2023-05-19T10:46:05.051Z,13.83
2023-05-19T10:47:08.655Z,13.83
2023-05-19T10:48:12.786Z,13.90
2023-05-19T10:49:22.169Z,13.76
2023-05-19T10:50:25.241Z,13.63
2023-05-19T10:51:32.840Z,13.73
2023-05-19T10:52:39.313Z,13.78
2023-05-19T10:53:46.146Z,13.64
2023-05-19T10:54:49.580Z,13.68
2023-05-19T10:55:56.583Z,13.72
2023-05-19T10:56:58.544Z,13.71
2023-05-19T10:58:01.511Z,13.75
2023-05-19T10:59:04.675Z,13.70
2023-05-19T11:00:28.792Z,13.61
2023-05-19T11:01:33.705Z,13.69
2023-05-19T11:02:41.222Z,13.70
2023-05-19T11:03:49.617Z,13.60
2023-05-19T11:04:53.455Z,13.68
2023-05-19T11:06:18.884Z,13.66
2023-05-19T11:07:24.575Z,13.71
2023-05-19T11:08:33.507Z,13.79
2023-05-19T11:09:41.803Z,13.78
2023-05-19T11:10:46.025Z,13.83
2023-05-19T11:11:50.331Z,13.92
2023-05-19T11:12:52.375Z,13.96
2023-05-19T11:13:56.852Z,14.00
2023-05-19T11:14:59.568Z,13.97
2023-05-19T11:16:08.694Z,14.02
2023-05-19T11:17:15.856Z,13.91
2023-05-19T11:18:19.478Z,13.96
2023-05-19T11:19:28.252Z,14.04
2023-05-19T11:20:32.028Z,14.03
2023-05-19T11:21:49.096Z,14.08
2023-05-19T11:23:08.637Z,14.11
2023-05-19T11:24:40.695Z,14.15
2023-05-19T11:25:44.297Z,14.17
2023-05-19T11:26:47.516Z,14.14
2023-05-19T11:27:52.819Z,14.16
2023-05-19T11:28:55.937Z,14.18
2023-05-19T11:29:59.521Z,14.20
2023-05-19T11:31:04.085Z,14.20
2023-05-19T11:32:07.365Z,14.21
2023-05-19T11:33:11.060Z,14.23
2023-05-19T11:34:13.906Z,14.24
2023-05-19T11:35:19.138Z,14.04
2023-05-19T11:36:23.384Z,14.03
2023-05-19T11:37:25.578Z,13.94
2023-05-19T11:38:30.200Z,13.89
2023-05-19T11:39:35.003Z,13.98
2023-05-19T11:40:38.152Z,14.02
2023-05-19T11:41:40.652Z,14.06
2023-05-19T11:42:44.848Z,14.07
2023-05-19T11:43:48.592Z,14.10
2023-05-19T11:44:50.516Z,14.13
2023-05-19T11:45:54.736Z,14.13
2023-05-19T11:46:57.697Z,14.13
2023-05-19T11:48:03.068Z,14.10
2023-05-19T11:49:05.813Z,14.14
2023-05-19T11:50:12.624Z,14.13
2023-05-19T11:51:16.504Z,14.17
2023-05-19T11:52:21.972Z,14.16
2023-05-19T11:53:25.038Z,14.17
2023-05-19T11:54:31.637Z,14.18
2023-05-19T11:55:36.890Z,14.11
2023-05-19T11:56:41.795Z,14.16
2023-05-19T11:58:02.886Z,14.18
2023-05-19T11:59:06.545Z,14.21
2023-05-19T12:00:10.726Z,14.19
2023-05-19T12:01:13.910Z,14.11
2023-05-19T12:02:19.093Z,14.17
2023-05-19T12:03:26.496Z,14.19
2023-05-19T12:04:29.073Z,13.99
2023-05-19T12:05:35.441Z,14.03
2023-05-19T12:06:41.674Z,14.09
2023-05-19T12:07:44.295Z,14.05
2023-05-19T12:08:47.407Z,13.99
2023-05-19T12:09:51.719Z,13.95
2023-05-19T12:10:56.215Z,14.03
2023-05-19T12:11:59.485Z,14.06
2023-05-19T12:13:03.045Z,14.11
2023-05-19T12:14:07.060Z,14.12
2023-05-19T12:15:10.465Z,14.11
2023-05-19T12:16:13.579Z,14.15
2023-05-19T12:17:17.632Z,14.17
2023-05-19T12:18:21.081Z,14.18
2023-05-19T12:19:24.498Z,14.21
2023-05-19T12:20:27.657Z,14.17
2023-05-19T12:21:33.726Z,14.16
2023-05-19T12:22:38.045Z,14.21
2023-05-19T12:23:41.544Z,14.23
2023-05-19T12:24:45.905Z,14.25
2023-05-19T12:25:49.510Z,14.24
2023-05-19T12:26:53.756Z,14.27
2023-05-19T12:27:58.357Z,14.28
2023-05-19T12:29:01.555Z,14.29
2023-05-19T12:30:04.487Z,14.29
2023-05-19T12:31:07.503Z,14.27
2023-05-19T12:32:10.206Z,14.11
2023-05-19T12:33:13.248Z,14.19
2023-05-19T12:34:15.908Z,14.20
2023-05-19T12:35:19.751Z,14.10
2023-05-19T12:36:25.070Z,14.02
2023-05-19T12:37:27.760Z,13.82
2023-05-19T12:38:30.713Z,13.93
2023-05-19T12:39:34.073Z,14.02
2023-05-19T12:40:40.566Z,14.08
2023-05-19T12:41:45.205Z,14.13
2023-05-19T12:42:52.160Z,14.11
2023-05-19T12:43:56.166Z,14.20
2023-05-19T12:45:00.741Z,14.19
2023-05-19T12:46:11.118Z,14.27
2023-05-19T12:47:13.495Z,14.31
2023-05-19T12:48:17.239Z,14.32
2023-05-19T12:49:19.448Z,14.36
2023-05-19T12:50:22.381Z,14.37
2023-05-19T12:51:25.325Z,14.47
2023-05-19T12:52:29.431Z,14.53
2023-05-19T12:53:34.707Z,14.52
2023-05-19T12:54:36.930Z,14.36
2023-05-19T12:55:42.936Z,14.38
2023-05-19T12:56:50.548Z,14.33
2023-05-19T12:57:57.887Z,14.38
2023-05-19T12:59:01.682Z,14.39
2023-05-19T13:00:07.414Z,14.41
2023-05-19T13:01:17.468Z,14.42
2023-05-19T13:02:21.012Z,14.42
2023-05-19T13:03:23.985Z,14.40
2023-05-19T13:04:26.884Z,14.39
2023-05-19T13:05:31.172Z,14.36
2023-05-19T13:06:33.669Z,14.38
2023-05-19T13:07:36.641Z,14.33
2023-05-19T13:08:39.748Z,14.37
2023-05-19T13:09:42.652Z,14.37
2023-05-19T13:10:47.201Z,14.38
2023-05-19T13:11:51.288Z,14.34
2023-05-19T13:12:56.762Z,14.36
2023-05-19T13:13:59.686Z,14.36
2023-05-19T13:15:01.602Z,14.32
2023-05-19T13:16:04.623Z,14.28
2023-05-19T13:17:06.762Z,14.20
2023-05-19T13:18:11.230Z,14.17
2023-05-19T13:19:24.995Z,14.18
2023-05-19T13:20:28.902Z,14.23
2023-05-19T13:21:31.885Z,14.22
2023-05-19T13:22:33.822Z,14.29
2023-05-19T13:23:36.713Z,14.32
2023-05-19T13:24:38.648Z,14.35
2023-05-19T13:25:42.336Z,14.36
2023-05-19T13:26:44.417Z,14.39
2023-05-19T13:27:48.935Z,14.43
2023-05-19T13:28:53.213Z,14.43
2023-05-19T13:29:55.233Z,14.30
2023-05-19T13:30:58.327Z,14.41
2023-05-19T13:32:01.512Z,14.42
2023-05-19T13:33:04.724Z,14.44
2023-05-19T13:34:08.010Z,14.43
2023-05-19T13:35:10.406Z,14.45
2023-05-19T13:36:13.241Z,14.47
2023-05-19T13:37:15.836Z,14.51
2023-05-19T13:38:18.778Z,14.55
2023-05-19T13:39:20.656Z,14.55
2023-05-19T13:40:24.174Z,14.57
2023-05-19T13:41:26.193Z,14.57
2023-05-19T13:42:29.510Z,14.57
2023-05-19T13:43:32.592Z,14.60
2023-05-19T13:44:36.842Z,14.61
2023-05-19T13:45:39.185Z,14.63
2023-05-19T13:46:45.676Z,14.62
2023-05-19T13:47:49.224Z,14.58
2023-05-19T13:48:52.121Z,14.58
2023-05-19T13:49:55.327Z,14.50
2023-05-19T13:50:58.218Z,14.53
2023-05-19T13:52:00.176Z,14.51
2023-05-19T13:53:03.668Z,14.52
2023-05-19T13:54:05.677Z,14.50
2023-05-19T13:55:09.517Z,14.53